sensor_id;sensor_type;location;lat;lon;timestamp;pressure;altitude;pressure_sealevel;temperature;humidity
49827;BME280;35715;51.570;6.036;2023-07-22T00:02:17;101253.06;;;18.77;56.10
49827;BME280;35715;51.570;6.036;2023-07-22T00:04:43;101260.03;;;18.78;56.40
49827;BME280;35715;51.570;6.036;2023-07-22T00:07:08;101254.81;;;18.78;56.57
49827;BME280;35715;51.570;6.036;2023-07-22T00:09:34;101257.38;;;18.77;56.38
49827;BME280;35715;51.570;6.036;2023-07-22T00:12:00;101258.22;;;18.76;56.50
49827;BME280;35715;51.570;6.036;2023-07-22T00:14:25;101259.78;;;18.72;56.50
49827;BME280;35715;51.570;6.036;2023-07-22T00:16:50;101263.25;;;18.71;56.61
49827;BME280;35715;51.570;6.036;2023-07-22T00:19:16;101256.25;;;18.70;56.53
49827;BME280;35715;51.570;6.036;2023-07-22T00:21:41;101251.63;;;18.65;56.74
49827;BME280;35715;51.570;6.036;2023-07-22T00:24:07;101253.13;;;18.58;56.68
49827;BME280;35715;51.570;6.036;2023-07-22T00:26:32;101254.00;;;18.58;57.24
49827;BME280;35715;51.570;6.036;2023-07-22T00:28:58;101248.84;;;18.60;57.39
49827;BME280;35715;51.570;6.036;2023-07-22T00:31:23;101255.88;;;18.61;56.75
49827;BME280;35715;51.570;6.036;2023-07-22T00:33:52;101254.06;;;18.60;57.33
49827;BME280;35715;51.570;6.036;2023-07-22T00:36:17;101253.19;;;18.59;57.61
49827;BME280;35715;51.570;6.036;2023-07-22T00:38:42;101248.47;;;18.51;57.40
49827;BME280;35715;51.570;6.036;2023-07-22T00:41:08;101253.56;;;18.48;57.59
49827;BME280;35715;51.570;6.036;2023-07-22T00:43:33;101253.44;;;18.44;57.79
49827;BME280;35715;51.570;6.036;2023-07-22T00:45:58;101241.94;;;18.41;57.72
49827;BME280;35715;51.570;6.036;2023-07-22T00:48:25;101240.94;;;18.37;57.81
49827;BME280;35715;51.570;6.036;2023-07-22T00:50:51;101245.34;;;18.38;58.21
49827;BME280;35715;51.570;6.036;2023-07-22T00:53:16;101247.09;;;18.39;58.32
49827;BME280;35715;51.570;6.036;2023-07-22T00:55:44;101243.72;;;18.42;57.96
49827;BME280;35715;51.570;6.036;2023-07-22T00:58:10;101248.13;;;18.43;58.10
49827;BME280;35715;51.570;6.036;2023-07-22T01:00:35;101244.63;;;18.42;58.08
49827;BME280;35715;51.570;6.036;2023-07-22T01:03:01;101241.19;;;18.43;58.17
49827;BME280;35715;51.570;6.036;2023-07-22T01:05:27;101236.94;;;18.46;58.52
49827;BME280;35715;51.570;6.036;2023-07-22T01:07:53;101237.88;;;18.48;58.04
49827;BME280;35715;51.570;6.036;2023-07-22T01:10:19;101233.53;;;18.48;58.19
49827;BME280;35715;51.570;6.036;2023-07-22T01:12:45;101235.19;;;18.46;58.05
49827;BME280;35715;51.570;6.036;2023-07-22T01:15:10;101240.44;;;18.46;58.34
49827;BME280;35715;51.570;6.036;2023-07-22T01:17:37;101240.31;;;18.43;58.26
49827;BME280;35715;51.570;6.036;2023-07-22T01:20:03;101228.88;;;18.41;58.40
49827;BME280;35715;51.570;6.036;2023-07-22T01:22:29;101230.59;;;18.40;58.42
49827;BME280;35715;51.570;6.036;2023-07-22T01:24:55;101225.44;;;18.42;58.29
49827;BME280;35715;51.570;6.036;2023-07-22T01:27:21;101218.41;;;18.41;58.29
49827;BME280;35715;51.570;6.036;2023-07-22T01:29:46;101218.34;;;18.39;58.47
49827;BME280;35715;51.570;6.036;2023-07-22T01:32:17;101233.22;;;18.40;58.60
49827;BME280;35715;51.570;6.036;2023-07-22T01:34:43;101223.59;;;18.39;58.55
49827;BME280;35715;51.570;6.036;2023-07-22T01:37:08;101221.81;;;18.38;58.52
49827;BME280;35715;51.570;6.036;2023-07-22T01:39:35;101225.19;;;18.36;58.44
49827;BME280;35715;51.570;6.036;2023-07-22T01:42:00;101227.59;;;18.31;58.47
49827;BME280;35715;51.570;6.036;2023-07-22T01:44:25;101225.75;;;18.29;58.65
49827;BME280;35715;51.570;6.036;2023-07-22T01:46:51;101223.84;;;18.24;58.17
49827;BME280;35715;51.570;6.036;2023-07-22T01:49:16;101221.31;;;18.26;58.44
49827;BME280;35715;51.570;6.036;2023-07-22T01:51:41;101215.84;;;18.20;58.58
49827;BME280;35715;51.570;6.036;2023-07-22T01:54:07;101211.63;;;18.23;58.77
49827;BME280;35715;51.570;6.036;2023-07-22T01:56:34;101222.88;;;18.22;58.67
49827;BME280;35715;51.570;6.036;2023-07-22T01:59:00;101211.63;;;18.23;58.99
49827;BME280;35715;51.570;6.036;2023-07-22T02:01:26;101217.66;;;18.22;59.16
49827;BME280;35715;51.570;6.036;2023-07-22T02:03:54;101221.19;;;18.23;59.32
49827;BME280;35715;51.570;6.036;2023-07-22T02:06:20;101219.31;;;18.20;59.16
49827;BME280;35715;51.570;6.036;2023-07-22T02:08:46;101216.44;;;18.14;59.41
49827;BME280;35715;51.570;6.036;2023-07-22T02:11:12;101223.31;;;18.12;59.72
49827;BME280;35715;51.570;6.036;2023-07-22T02:13:38;101222.44;;;18.12;59.93
49827;BME280;35715;51.570;6.036;2023-07-22T02:16:03;101220.69;;;18.12;59.69
49827;BME280;35715;51.570;6.036;2023-07-22T02:18:29;101213.78;;;18.13;59.75
49827;BME280;35715;51.570;6.036;2023-07-22T02:20:56;101221.59;;;18.13;60.29
49827;BME280;35715;51.570;6.036;2023-07-22T02:23:22;101225.91;;;18.12;60.01
49827;BME280;35715;51.570;6.036;2023-07-22T02:25:51;101214.53;;;18.10;60.04
49827;BME280;35715;51.570;6.036;2023-07-22T02:28:17;101213.44;;;18.05;60.19
49827;BME280;35715;51.570;6.036;2023-07-22T02:30:53;101221.09;;;18.00;60.26
49827;BME280;35715;51.570;6.036;2023-07-22T02:33:20;101213.19;;;17.99;60.33
49827;BME280;35715;51.570;6.036;2023-07-22T02:35:46;101217.44;;;17.97;60.59
49827;BME280;35715;51.570;6.036;2023-07-22T02:38:12;101213.94;;;17.96;60.50
49827;BME280;35715;51.570;6.036;2023-07-22T02:40:39;101216.69;;;17.99;60.19
49827;BME280;35715;51.570;6.036;2023-07-22T02:43:04;101215.59;;;17.94;59.92
49827;BME280;35715;51.570;6.036;2023-07-22T02:45:34;101219.97;;;17.95;60.35
49827;BME280;35715;51.570;6.036;2023-07-22T02:48:00;101210.44;;;17.96;59.88
49827;BME280;35715;51.570;6.036;2023-07-22T02:50:26;101211.19;;;17.93;60.03
49827;BME280;35715;51.570;6.036;2023-07-22T02:52:51;101202.53;;;17.94;60.04
49827;BME280;35715;51.570;6.036;2023-07-22T02:55:17;101211.19;;;17.93;59.84
49827;BME280;35715;51.570;6.036;2023-07-22T02:57:47;101206.66;;;17.89;59.59
49827;BME280;35715;51.570;6.036;2023-07-22T03:00:13;101202.16;;;17.86;59.61
49827;BME280;35715;51.570;6.036;2023-07-22T03:02:45;101202.00;;;17.83;60.13
49827;BME280;35715;51.570;6.036;2023-07-22T03:05:11;101198.66;;;17.86;59.83
49827;BME280;35715;51.570;6.036;2023-07-22T03:07:37;101204.81;;;17.88;60.11
49827;BME280;35715;51.570;6.036;2023-07-22T03:10:06;101205.84;;;17.90;60.27
49827;BME280;35715;51.570;6.036;2023-07-22T03:12:33;101202.31;;;17.89;59.92
49827;BME280;35715;51.570;6.036;2023-07-22T03:15:01;101206.72;;;17.90;60.24
49827;BME280;35715;51.570;6.036;2023-07-22T03:17:29;101204.94;;;17.89;60.10
49827;BME280;35715;51.570;6.036;2023-07-22T03:19:55;101208.28;;;17.87;60.19
49827;BME280;35715;51.570;6.036;2023-07-22T03:22:20;101205.47;;;17.82;60.38
49827;BME280;35715;51.570;6.036;2023-07-22T03:24:46;101211.56;;;17.83;60.70
49827;BME280;35715;51.570;6.036;2023-07-22T03:27:12;101214.94;;;17.80;60.35
49827;BME280;35715;51.570;6.036;2023-07-22T03:29:38;101209.59;;;17.77;60.45
49827;BME280;35715;51.570;6.036;2023-07-22T03:32:05;101213.84;;;17.75;60.63
49827;BME280;35715;51.570;6.036;2023-07-22T03:34:31;101217.28;;;17.74;60.79
49827;BME280;35715;51.570;6.036;2023-07-22T03:36:56;101212.78;;;17.70;61.09
49827;BME280;35715;51.570;6.036;2023-07-22T03:39:22;101220.28;;;17.64;60.92
49827;BME280;35715;51.570;6.036;2023-07-22T03:41:47;101225.38;;;17.61;61.13
49827;BME280;35715;51.570;6.036;2023-07-22T03:44:13;101219.28;;;17.60;61.50
49827;BME280;35715;51.570;6.036;2023-07-22T03:46:38;101227.97;;;17.61;61.44
49827;BME280;35715;51.570;6.036;2023-07-22T03:49:04;101221.88;;;17.60;61.92
49827;BME280;35715;51.570;6.036;2023-07-22T03:51:30;101220.78;;;17.55;61.81
49827;BME280;35715;51.570;6.036;2023-07-22T03:53:55;101231.03;;;17.50;61.91
49827;BME280;35715;51.570;6.036;2023-07-22T03:56:21;101227.44;;;17.48;62.12
49827;BME280;35715;51.570;6.036;2023-07-22T03:58:48;101229.84;;;17.44;62.38
49827;BME280;35715;51.570;6.036;2023-07-22T04:01:14;101229.63;;;17.39;62.58
49827;BME280;35715;51.570;6.036;2023-07-22T04:03:39;101228.53;;;17.34;62.63
49827;BME280;35715;51.570;6.036;2023-07-22T04:06:04;101226.59;;;17.30;63.11
49827;BME280;35715;51.570;6.036;2023-07-22T04:08:30;101221.03;;;17.22;63.18
49827;BME280;35715;51.570;6.036;2023-07-22T04:10:56;101220.66;;;17.14;63.33
49827;BME280;35715;51.570;6.036;2023-07-22T04:13:23;101219.59;;;17.11;63.62
49827;BME280;35715;51.570;6.036;2023-07-22T04:15:50;101221.19;;;17.07;63.82
49827;BME280;35715;51.570;6.036;2023-07-22T04:18:16;101220.25;;;17.05;64.17
49827;BME280;35715;51.570;6.036;2023-07-22T04:20:42;101229.69;;;17.03;64.39
49827;BME280;35715;51.570;6.036;2023-07-22T04:23:07;101226.78;;;16.97;64.64
49827;BME280;35715;51.570;6.036;2023-07-22T04:25:32;101226.84;;;16.98;64.93
49827;BME280;35715;51.570;6.036;2023-07-22T04:27:59;101224.38;;;17.01;65.08
49827;BME280;35715;51.570;6.036;2023-07-22T04:30:24;101220.97;;;17.02;65.03
49827;BME280;35715;51.570;6.036;2023-07-22T04:32:49;101223.66;;;17.04;65.06
49827;BME280;35715;51.570;6.036;2023-07-22T04:35:18;101230.59;;;17.03;65.25
49827;BME280;35715;51.570;6.036;2023-07-22T04:37:44;101233.19;;;17.03;65.17
49827;BME280;35715;51.570;6.036;2023-07-22T04:40:11;101232.44;;;17.06;65.29
49827;BME280;35715;51.570;6.036;2023-07-22T04:42:40;101225.38;;;17.03;65.16
49827;BME280;35715;51.570;6.036;2023-07-22T04:45:07;101229.69;;;17.03;65.76
49827;BME280;35715;51.570;6.036;2023-07-22T04:47:33;101234.75;;;17.00;65.42
49827;BME280;35715;51.570;6.036;2023-07-22T04:49:59;101231.91;;;16.95;65.60
49827;BME280;35715;51.570;6.036;2023-07-22T04:52:24;101231.84;;;16.94;65.60
49827;BME280;35715;51.570;6.036;2023-07-22T04:54:52;101224.88;;;16.93;65.60
49827;BME280;35715;51.570;6.036;2023-07-22T04:57:19;101234.47;;;16.94;65.66
49827;BME280;35715;51.570;6.036;2023-07-22T04:59:45;101235.31;;;16.93;65.63
49827;BME280;35715;51.570;6.036;2023-07-22T05:02:11;101234.47;;;16.94;65.67
49827;BME280;35715;51.570;6.036;2023-07-22T05:04:37;101237.91;;;16.93;65.64
49827;BME280;35715;51.570;6.036;2023-07-22T05:07:02;101250.25;;;16.97;65.47
49827;BME280;35715;51.570;6.036;2023-07-22T05:09:28;101236.47;;;16.99;65.76
49827;BME280;35715;51.570;6.036;2023-07-22T05:11:53;101238.28;;;17.00;65.71
49827;BME280;35715;51.570;6.036;2023-07-22T05:14:18;101244.22;;;16.98;65.33
49827;BME280;35715;51.570;6.036;2023-07-22T05:16:44;101245.88;;;16.96;65.41
49827;BME280;35715;51.570;6.036;2023-07-22T05:19:09;101236.41;;;16.98;65.62
49827;BME280;35715;51.570;6.036;2023-07-22T05:21:34;101230.53;;;17.02;65.92
49827;BME280;35715;51.570;6.036;2023-07-22T05:24:00;101239.50;;;17.09;65.93
49827;BME280;35715;51.570;6.036;2023-07-22T05:26:25;101238.84;;;17.13;65.62
49827;BME280;35715;51.570;6.036;2023-07-22T05:28:50;101242.34;;;17.13;65.88
49827;BME280;35715;51.570;6.036;2023-07-22T05:31:16;101241.75;;;17.19;65.75
49827;BME280;35715;51.570;6.036;2023-07-22T05:33:41;101241.22;;;17.26;65.84
49827;BME280;35715;51.570;6.036;2023-07-22T05:36:07;101241.28;;;17.28;65.48
49827;BME280;35715;51.570;6.036;2023-07-22T05:38:32;101246.56;;;17.29;65.31
49827;BME280;35715;51.570;6.036;2023-07-22T05:40:57;101243.47;;;17.38;65.40
49827;BME280;35715;51.570;6.036;2023-07-22T05:43:23;101245.69;;;17.48;65.07
49827;BME280;35715;51.570;6.036;2023-07-22T05:45:49;101247.38;;;17.66;65.15
49827;BME280;35715;51.570;6.036;2023-07-22T05:48:14;101240.16;;;17.80;64.76
49827;BME280;35715;51.570;6.036;2023-07-22T05:50:39;101242.59;;;17.95;64.52
49827;BME280;35715;51.570;6.036;2023-07-22T05:53:05;101241.38;;;18.07;64.56
49827;BME280;35715;51.570;6.036;2023-07-22T05:55:30;101246.25;;;18.19;64.06
49827;BME280;35715;51.570;6.036;2023-07-22T05:57:56;101244.69;;;18.23;63.95
49827;BME280;35715;51.570;6.036;2023-07-22T06:00:21;101237.88;;;18.26;64.04
49827;BME280;35715;51.570;6.036;2023-07-22T06:02:47;101243.41;;;18.34;63.95
49827;BME280;35715;51.570;6.036;2023-07-22T06:05:13;101243.53;;;18.37;63.65
49827;BME280;35715;51.570;6.036;2023-07-22T06:07:39;101241.88;;;18.39;63.79
49827;BME280;35715;51.570;6.036;2023-07-22T06:10:05;101239.13;;;18.36;63.50
49827;BME280;35715;51.570;6.036;2023-07-22T06:12:30;101237.69;;;18.43;63.20
49827;BME280;35715;51.570;6.036;2023-07-22T06:14:56;101233.41;;;18.45;63.58
49827;BME280;35715;51.570;6.036;2023-07-22T06:17:21;101223.34;;;18.54;63.45
49827;BME280;35715;51.570;6.036;2023-07-22T06:19:47;101224.38;;;18.58;63.19
49827;BME280;35715;51.570;6.036;2023-07-22T06:22:12;101215.16;;;18.68;63.43
49827;BME280;35715;51.570;6.036;2023-07-22T06:24:38;101211.47;;;18.84;63.49
49827;BME280;35715;51.570;6.036;2023-07-22T06:27:03;101216.19;;;19.15;62.76
49827;BME280;35715;51.570;6.036;2023-07-22T06:29:29;101215.53;;;19.43;62.30
49827;BME280;35715;51.570;6.036;2023-07-22T06:31:54;101222.50;;;19.67;61.52
49827;BME280;35715;51.570;6.036;2023-07-22T06:34:22;101217.72;;;20.03;60.52
49827;BME280;35715;51.570;6.036;2023-07-22T06:36:48;101215.66;;;20.46;59.93
49827;BME280;35715;51.570;6.036;2023-07-22T06:39:13;101210.69;;;20.54;59.15
49827;BME280;35715;51.570;6.036;2023-07-22T06:41:38;101214.97;;;20.78;59.51
49827;BME280;35715;51.570;6.036;2023-07-22T06:44:04;101218.53;;;21.08;58.01
49827;BME280;35715;51.570;6.036;2023-07-22T06:46:29;101215.22;;;21.14;57.98
49827;BME280;35715;51.570;6.036;2023-07-22T06:48:54;101223.28;;;21.20;57.16
49827;BME280;35715;51.570;6.036;2023-07-22T06:51:20;101219.00;;;21.24;57.59
49827;BME280;35715;51.570;6.036;2023-07-22T06:53:45;101218.44;;;21.34;57.84
49827;BME280;35715;51.570;6.036;2023-07-22T06:56:11;101215.88;;;21.36;58.09
49827;BME280;35715;51.570;6.036;2023-07-22T06:58:37;101212.22;;;21.31;57.16
49827;BME280;35715;51.570;6.036;2023-07-22T07:01:02;101206.09;;;21.32;57.39
49827;BME280;35715;51.570;6.036;2023-07-22T07:03:27;101204.69;;;21.43;57.15
49827;BME280;35715;51.570;6.036;2023-07-22T07:05:56;101208.28;;;21.47;56.34
49827;BME280;35715;51.570;6.036;2023-07-22T07:08:23;101208.13;;;21.40;56.22
49827;BME280;35715;51.570;6.036;2023-07-22T07:10:49;101210.47;;;21.60;56.09
49827;BME280;35715;51.570;6.036;2023-07-22T07:13:16;101209.53;;;21.58;55.67
49827;BME280;35715;51.570;6.036;2023-07-22T07:15:45;101205.66;;;21.47;57.06
49827;BME280;35715;51.570;6.036;2023-07-22T07:18:11;101212.91;;;21.25;56.32
49827;BME280;35715;51.570;6.036;2023-07-22T07:20:36;101206.44;;;21.12;56.86
49827;BME280;35715;51.570;6.036;2023-07-22T07:23:02;101204.34;;;21.31;57.39
49827;BME280;35715;51.570;6.036;2023-07-22T07:25:28;101200.63;;;21.85;56.83
49827;BME280;35715;51.570;6.036;2023-07-22T07:27:53;101197.56;;;22.01;55.49
49827;BME280;35715;51.570;6.036;2023-07-22T07:30:19;101198.91;;;21.85;56.15
49827;BME280;35715;51.570;6.036;2023-07-22T07:32:44;101194.81;;;21.96;56.36
49827;BME280;35715;51.570;6.036;2023-07-22T07:35:09;101201.66;;;22.23;55.97
49827;BME280;35715;51.570;6.036;2023-07-22T07:37:36;101201.09;;;22.70;54.94
49827;BME280;35715;51.570;6.036;2023-07-22T07:40:01;101193.91;;;23.02;53.99
49827;BME280;35715;51.570;6.036;2023-07-22T07:42:27;101195.56;;;22.97;53.29
49827;BME280;35715;51.570;6.036;2023-07-22T07:44:52;101196.91;;;22.80;53.15
49827;BME280;35715;51.570;6.036;2023-07-22T07:47:18;101197.06;;;22.49;54.59
49827;BME280;35715;51.570;6.036;2023-07-22T07:49:43;101194.03;;;22.32;54.89
49827;BME280;35715;51.570;6.036;2023-07-22T07:52:09;101206.94;;;22.25;55.50
49827;BME280;35715;51.570;6.036;2023-07-22T07:54:34;101206.53;;;22.08;56.66
49827;BME280;35715;51.570;6.036;2023-07-22T07:57:00;101215.00;;;21.97;55.85
49827;BME280;35715;51.570;6.036;2023-07-22T07:59:25;101212.81;;;21.81;57.00
49827;BME280;35715;51.570;6.036;2023-07-22T08:01:51;101214.00;;;21.60;56.95
49827;BME280;35715;51.570;6.036;2023-07-22T08:04:16;101213.00;;;21.57;57.41
49827;BME280;35715;51.570;6.036;2023-07-22T08:06:42;101211.66;;;21.41;57.53
49827;BME280;35715;51.570;6.036;2023-07-22T08:09:08;101213.19;;;21.34;57.46
49827;BME280;35715;51.570;6.036;2023-07-22T08:11:37;101223.59;;;21.31;58.11
49827;BME280;35715;51.570;6.036;2023-07-22T08:14:03;101228.75;;;21.28;59.02
49827;BME280;35715;51.570;6.036;2023-07-22T08:16:28;101221.03;;;21.33;58.67
49827;BME280;35715;51.570;6.036;2023-07-22T08:18:54;101219.13;;;21.28;58.13
49827;BME280;35715;51.570;6.036;2023-07-22T08:21:19;101222.94;;;21.38;58.35
49827;BME280;35715;51.570;6.036;2023-07-22T08:23:45;101222.44;;;21.50;58.15
49827;BME280;35715;51.570;6.036;2023-07-22T08:26:12;101225.28;;;21.58;58.45
49827;BME280;35715;51.570;6.036;2023-07-22T08:28:37;101229.63;;;21.57;58.28
49827;BME280;35715;51.570;6.036;2023-07-22T08:31:03;101227.44;;;21.71;58.04
49827;BME280;35715;51.570;6.036;2023-07-22T08:33:29;101222.69;;;22.23;57.34
49827;BME280;35715;51.570;6.036;2023-07-22T08:35:55;101233.28;;;22.60;57.18
49827;BME280;35715;51.570;6.036;2023-07-22T08:38:20;101223.19;;;22.78;56.34
49827;BME280;35715;51.570;6.036;2023-07-22T08:40:49;101228.00;;;23.36;53.67
49827;BME280;35715;51.570;6.036;2023-07-22T08:43:19;101222.59;;;23.71;52.89
49827;BME280;35715;51.570;6.036;2023-07-22T08:45:45;101224.75;;;23.90;52.25
49827;BME280;35715;51.570;6.036;2023-07-22T08:48:15;101222.66;;;24.20;51.25
49827;BME280;35715;51.570;6.036;2023-07-22T08:50:53;101220.03;;;24.20;51.17
49827;BME280;35715;51.570;6.036;2023-07-22T08:53:19;101221.09;;;24.33;50.69
49827;BME280;35715;51.570;6.036;2023-07-22T08:55:45;101223.78;;;24.34;49.85
49827;BME280;35715;51.570;6.036;2023-07-22T08:58:13;101222.69;;;24.21;50.49
49827;BME280;35715;51.570;6.036;2023-07-22T09:00:45;101217.56;;;24.31;50.01
49827;BME280;35715;51.570;6.036;2023-07-22T09:03:11;101211.81;;;24.03;50.49
49827;BME280;35715;51.570;6.036;2023-07-22T09:05:37;101214.19;;;24.38;49.76
49827;BME280;35715;51.570;6.036;2023-07-22T09:08:05;101213.13;;;24.28;49.74
49827;BME280;35715;51.570;6.036;2023-07-22T09:10:32;101213.88;;;24.21;49.80
49827;BME280;35715;51.570;6.036;2023-07-22T09:12:59;101221.59;;;24.10;50.80
49827;BME280;35715;51.570;6.036;2023-07-22T09:15:27;101212.00;;;24.64;49.50
49827;BME280;35715;51.570;6.036;2023-07-22T09:17:53;101222.16;;;25.62;47.53
49827;BME280;35715;51.570;6.036;2023-07-22T09:20:19;101225.22;;;25.99;45.42
49827;BME280;35715;51.570;6.036;2023-07-22T09:22:46;101215.75;;;25.41;47.11
49827;BME280;35715;51.570;6.036;2023-07-22T09:25:20;101220.91;;;26.07;45.85
49827;BME280;35715;51.570;6.036;2023-07-22T09:27:47;101210.44;;;27.41;43.61
49827;BME280;35715;51.570;6.036;2023-07-22T09:30:29;101215.00;;;28.95;40.57
49827;BME280;35715;51.570;6.036;2023-07-22T09:32:57;101213.00;;;29.69;39.04
49827;BME280;35715;51.570;6.036;2023-07-22T09:35:25;101213.69;;;30.05;37.79
49827;BME280;35715;51.570;6.036;2023-07-22T09:37:52;101215.94;;;28.80;39.04
49827;BME280;35715;51.570;6.036;2023-07-22T09:40:23;101213.28;;;28.33;40.10
49827;BME280;35715;51.570;6.036;2023-07-22T09:42:53;101219.41;;;27.88;40.60
49827;BME280;35715;51.570;6.036;2023-07-22T09:45:24;101219.38;;;27.78;40.47
49827;BME280;35715;51.570;6.036;2023-07-22T09:47:50;101216.75;;;27.92;40.21
49827;BME280;35715;51.570;6.036;2023-07-22T09:50:20;101198.84;;;27.31;40.42
49827;BME280;35715;51.570;6.036;2023-07-22T09:52:54;101198.03;;;27.34;40.52
49827;BME280;35715;51.570;6.036;2023-07-22T09:55:21;101198.78;;;27.11;41.10
49827;BME280;35715;51.570;6.036;2023-07-22T09:57:50;101199.44;;;26.74;41.14
49827;BME280;35715;51.570;6.036;2023-07-22T10:00:17;101203.56;;;26.38;41.54
49827;BME280;35715;51.570;6.036;2023-07-22T10:02:47;101198.09;;;26.17;42.45
49827;BME280;35715;51.570;6.036;2023-07-22T10:05:16;101195.34;;;26.08;42.38
49827;BME280;35715;51.570;6.036;2023-07-22T10:07:44;101192.25;;;26.63;42.28
49827;BME280;35715;51.570;6.036;2023-07-22T10:10:12;101179.34;;;27.07;41.30
49827;BME280;35715;51.570;6.036;2023-07-22T10:12:41;101184.81;;;27.52;40.68
49827;BME280;35715;51.570;6.036;2023-07-22T10:15:13;101182.28;;;27.91;39.47
49827;BME280;35715;51.570;6.036;2023-07-22T10:17:40;101189.22;;;27.44;40.35
49827;BME280;35715;51.570;6.036;2023-07-22T10:20:09;101184.59;;;26.97;40.92
49827;BME280;35715;51.570;6.036;2023-07-22T10:22:42;101178.13;;;26.58;40.69
49827;BME280;35715;51.570;6.036;2023-07-22T10:25:10;101186.78;;;26.35;41.49
49827;BME280;35715;51.570;6.036;2023-07-22T10:27:36;101185.72;;;26.17;40.37
49827;BME280;35715;51.570;6.036;2023-07-22T10:30:05;101174.38;;;26.29;40.41
49827;BME280;35715;51.570;6.036;2023-07-22T10:32:42;101180.56;;;26.31;41.03
49827;BME280;35715;51.570;6.036;2023-07-22T10:35:12;101186.59;;;26.12;41.53
49827;BME280;35715;51.570;6.036;2023-07-22T10:37:39;101172.38;;;26.00;41.00
49827;BME280;35715;51.570;6.036;2023-07-22T10:42:53;101180.22;;;25.97;41.17
49827;BME280;35715;51.570;6.036;2023-07-22T10:45:30;101182.59;;;25.68;41.22
49827;BME280;35715;51.570;6.036;2023-07-22T10:48:01;101181.63;;;25.61;42.24
49827;BME280;35715;51.570;6.036;2023-07-22T10:50:37;101187.47;;;25.34;42.84
49827;BME280;35715;51.570;6.036;2023-07-22T10:53:02;101189.59;;;25.64;43.03
49827;BME280;35715;51.570;6.036;2023-07-22T10:55:28;101184.66;;;25.97;42.05
49827;BME280;35715;51.570;6.036;2023-07-22T10:57:54;101180.81;;;25.67;41.74
49827;BME280;35715;51.570;6.036;2023-07-22T11:00:21;101178.13;;;25.64;41.91
49827;BME280;35715;51.570;6.036;2023-07-22T11:03:13;101187.66;;;25.49;42.11
49827;BME280;35715;51.570;6.036;2023-07-22T11:08:13;101179.31;;;25.19;43.24
49827;BME280;35715;51.570;6.036;2023-07-22T11:10:52;101184.66;;;25.22;43.20
49827;BME280;35715;51.570;6.036;2023-07-22T11:13:18;101172.19;;;25.13;44.03
49827;BME280;35715;51.570;6.036;2023-07-22T11:15:47;101171.38;;;25.15;44.26
49827;BME280;35715;51.570;6.036;2023-07-22T11:18:13;101173.50;;;25.44;43.31
49827;BME280;35715;51.570;6.036;2023-07-22T11:20:38;101168.16;;;25.38;43.87
49827;BME280;35715;51.570;6.036;2023-07-22T11:23:03;101165.66;;;25.52;44.14
49827;BME280;35715;51.570;6.036;2023-07-22T11:25:29;101174.41;;;25.48;43.82
49827;BME280;35715;51.570;6.036;2023-07-22T11:27:54;101163.91;;;25.54;43.65
49827;BME280;35715;51.570;6.036;2023-07-22T11:30:19;101163.81;;;25.45;43.36
49827;BME280;35715;51.570;6.036;2023-07-22T11:32:48;101157.91;;;25.67;43.70
49827;BME280;35715;51.570;6.036;2023-07-22T11:35:15;101156.38;;;25.91;42.82
49827;BME280;35715;51.570;6.036;2023-07-22T11:37:41;101142.25;;;25.88;41.10
49827;BME280;35715;51.570;6.036;2023-07-22T11:40:11;101143.78;;;25.65;40.89
49827;BME280;35715;51.570;6.036;2023-07-22T11:42:37;101148.28;;;25.71;41.48
49827;BME280;35715;51.570;6.036;2023-07-22T11:45:03;101157.22;;;25.89;41.07
49827;BME280;35715;51.570;6.036;2023-07-22T11:47:29;101153.03;;;26.05;40.37
49827;BME280;35715;51.570;6.036;2023-07-22T11:49:56;101144.34;;;26.21;39.87
49827;BME280;35715;51.570;6.036;2023-07-22T11:52:21;101143.47;;;26.27;39.50
49827;BME280;35715;51.570;6.036;2023-07-22T11:54:47;101144.44;;;26.35;39.77
49827;BME280;35715;51.570;6.036;2023-07-22T11:59:45;101138.53;;;26.73;38.74
49827;BME280;35715;51.570;6.036;2023-07-22T12:02:24;101138.41;;;26.56;39.25
49827;BME280;35715;51.570;6.036;2023-07-22T12:04:56;101133.13;;;26.54;38.94
49827;BME280;35715;51.570;6.036;2023-07-22T12:07:36;101131.28;;;26.47;38.06
49827;BME280;35715;51.570;6.036;2023-07-22T12:10:07;101125.75;;;26.10;38.83
49827;BME280;35715;51.570;6.036;2023-07-22T12:12:45;101123.19;;;26.21;38.54
49827;BME280;35715;51.570;6.036;2023-07-22T12:15:17;101121.53;;;26.40;38.25
49827;BME280;35715;51.570;6.036;2023-07-22T12:17:46;101123.38;;;26.49;37.79
49827;BME280;35715;51.570;6.036;2023-07-22T12:20:12;101128.69;;;26.52;38.12
49827;BME280;35715;51.570;6.036;2023-07-22T12:22:37;101124.16;;;26.35;37.85
49827;BME280;35715;51.570;6.036;2023-07-22T12:25:03;101133.03;;;26.41;38.16
49827;BME280;35715;51.570;6.036;2023-07-22T12:27:29;101128.66;;;26.50;38.46
49827;BME280;35715;51.570;6.036;2023-07-22T12:29:54;101125.97;;;26.43;38.05
49827;BME280;35715;51.570;6.036;2023-07-22T12:32:19;101115.31;;;26.32;37.59
49827;BME280;35715;51.570;6.036;2023-07-22T12:34:45;101110.03;;;26.32;38.59
49827;BME280;35715;51.570;6.036;2023-07-22T12:37:10;101121.44;;;26.26;38.06
49827;BME280;35715;51.570;6.036;2023-07-22T12:39:35;101115.28;;;26.27;37.44
49827;BME280;35715;51.570;6.036;2023-07-22T12:42:01;101107.25;;;26.13;37.21
49827;BME280;35715;51.570;6.036;2023-07-22T12:44:26;101106.38;;;26.17;38.07
49827;BME280;35715;51.570;6.036;2023-07-22T12:46:51;101109.03;;;26.16;37.73
49827;BME280;35715;51.570;6.036;2023-07-22T12:49:18;101112.53;;;26.10;37.22
49827;BME280;35715;51.570;6.036;2023-07-22T12:51:44;101106.41;;;26.20;37.56
49827;BME280;35715;51.570;6.036;2023-07-22T12:54:09;101103.75;;;26.20;37.09
49827;BME280;35715;51.570;6.036;2023-07-22T12:56:34;101104.66;;;26.18;37.74